Historyczne dane pomiarowe

Dodano dane terminowe – wersja testowa.

Dane z okresu 1951-2019

Wersja bazy: 1.34 [2019-03-16, lista zmian], aktualizacja planowana na 2019-04-15

Dane meteo z obszaru Polski uzyskane na podstawie danych udostępnionych przez Instytut Meteorologii i Gospodarki Wodnej – Państwowy Instytut Badawczy.

 

Wybierz Datę:    

       

TemperaturaWilgotnośćWiatrCiśnienieOpadyŚniegCzas trwania zjawisk
 Stacja t tx tn tng RH VA  wxwx mslp ppp RRR   cm mm wxwxwxwxwxwxwx
1956-11-09 -0.8 2.7 -3.1- 76.8- 5.3 4.7---- 0.0------------
1956-11-08 0.1 5.7 -2.9- 80.5- 3.0 3.3---- 0.0------------
1956-11-07 2.9 4.6 1.9- 59.0- 3.7 5.7---- 0.0------------
1956-11-06 3.8 6.0 2.4- 55.3- 4.3 10.3---- 0.0------------
1956-11-05 5.8 8.7 3.2- 69.0- 8.0 12.0---- 3.7------------
1956-11-04 3.0 4.5 -0.4- 76.8- 6.3 4.0---- 0.0------------
1956-11-03 3.1 6.0 -0.2- 73.8- 6.3 4.7---- 0.0------------
1956-11-02 4.8 6.7 2.7- 62.8- 5.7 4.3---- 0.3------------
1956-11-01 6.3 7.8 1.2- 89.8- 8.0 10.3---- 5.5------------
1956-10-31 -0.4 2.0 -6.1- 88.3- 5.7 4.7---- 0.0------------
1956-10-30 0.1 1.8 -1.5- 95.0- 5.7 10.0---- 0.0------------
1956-10-29 1.7 6.4 -0.1- 92.5- 8.0 12.0---- 0.1------------
1956-10-28 7.0 8.5 5.6- 95.3- 8.0 7.0---- 0.3------------
1956-10-27 8.4 10.2 1.5- 84.5- 6.7 12.3---- 4.2------------
1956-10-26 6.1 9.5 4.3- 89.8- 5.3 2.3---- 0.0------------
1956-10-25 9.6 14.2 6.7- 90.8- 5.7 4.7---- 1.4------------
1956-10-24 11.6 12.8 9.9- 98.5- 8.0 4.3---- 1.7------------
1956-10-23 11.0 12.3 9.1- 88.8- 8.0 6.7---- 0.0------------
1956-10-22 11.8 13.2 11.3- 86.5- 7.0 7.0---- 0.0------------
1956-10-21 12.4 13.4 9.3- 91.0- 8.0 5.7---- 0.0------------
1956-10-20 9.2 11.0 6.6- 95.8- 6.3 4.0---- 1.3------------
1956-10-19 10.6 12.2 9.2- 85.8- 5.0 4.3---- 0.0------------
1956-10-18 10.8 13.0 9.1- 98.8- 7.0 3.0---- 8.4------------
1956-10-17 9.8 16.1 0.9- 69.3- 0.7 6.0---- 0.0------------
1956-10-16 6.0 12.7 0.6- 92.8- 2.7 2.7---- 0.0------------
1956-10-15 6.1 11.7 1.6- 87.0- 0.0 4.0---- 0.0------------
1956-10-14 9.5 11.8 7.8- 68.5- 0.7 9.7---- 0.0------------
1956-10-13 10.6 12.0 9.6- 87.3- 8.0 15.3---- 10.9------------
1956-10-12 11.5 12.6 10.6- 89.3- 8.0 13.7---- 0.0------------
1956-10-11 11.8 13.2 7.1- 86.5- 7.3 10.3---- 0.0------------
1956-10-10 6.7 10.0 0.7- 87.3- 5.0 6.0---- 0.1------------
1956-10-09 8.5 12.2 5.1- 80.5- 6.3 5.3---- 0.1------------
1956-10-08 6.9 9.4 4.5- 79.5- 6.7 5.0---- 7.8------------
1956-10-07 8.4 10.7 7.1- 80.0- 6.7 13.3---- 3.9------------
1956-10-06 8.0 11.0 3.5- 81.3- 4.0 4.0---- 1.1------------
1956-10-05 7.0 12.3 4.1- 93.3- 3.7 4.0---- 3.6------------
1956-10-04 10.4 14.9 5.9- 86.5- 5.0 5.3---- 1.0------------
1956-10-03 11.6 14.7 9.4- 91.3- 6.7 4.0---- 5.0------------
1956-10-02 13.4 17.5 8.1- 93.3- 8.0 4.7---- 15.4------------
1956-10-01 11.8 15.0 7.4- 95.0- 6.0 4.7---- 7.4------------
1956-09-30 12.1 16.7 10.0- 92.5- 1.7 8.3---- 0.0------------
1956-09-29 14.3 17.0 12.9- 87.8- 2.3 11.7---- 0.0------------
1956-09-28 15.4 18.7 11.0- 90.3- 6.0 9.7---- 1.6------------
1956-09-27 15.1 20.6 10.3- 91.8- 5.0 4.7---- 0.0------------
1956-09-26 14.7 23.5 7.1- 77.3- 0.0 4.3---- 0.0------------
1956-09-25 11.6 20.2 2.6- 74.0- 0.0 4.0---- 0.0------------
1956-09-24 8.3 17.2 3.2- 74.3- 0.0 4.3---- 0.0------------
1956-09-23 11.2 16.5 8.5- 77.5- 3.0 4.7---- 0.0------------
1956-09-22 12.0 18.0 7.0- 90.3- 0.3 4.0---- 0.0------------
1956-09-21 10.7 18.0 3.2- 88.0- 0.3 2.7---- 0.0------------
1956-09-20 9.3 15.2 5.0- 89.5- 4.0 2.3---- 0.0------------
1956-09-19 8.8 15.7 2.2- 91.3- 1.3 2.0---- 0.0------------
1956-09-18 9.9 15.5 5.9- 83.5- 2.0 3.3---- 0.0------------
1956-09-17 12.0 14.4 10.3- 63.5- 2.7 7.0---- 1.6------------
1956-09-16 12.1 14.2 10.8- 77.0- 4.3 10.7---- 0.8------------
1956-09-15 13.1 15.2 9.3- 70.3- 3.0 8.3---- 0.0------------
1956-09-14 11.1 16.5 4.9- 88.3- 1.7 2.7---- 1.0------------
1956-09-13 10.7 13.3 9.4- 82.5- 3.7 5.7---- 3.7------------
1956-09-12 13.1 15.2 11.2- 70.5- 3.3 13.3---- 0.0------------
1956-09-11 14.1 17.8 11.9- 91.8- 7.3 2.3---- 9.7------------
260.0 ms

 

Źródłem pochodzenia danych jest Instytut Meteorologii i Gospodarki Wodnej – Państwowy Instytut Badawczy. Dane Instytutu Meteorologii i Gospodarki Wodnej – Państwowego Instytutu Badawczego zostały przetworzone.

Dane źródłowe można odnaleźć na stronie https://dane.imgw.pl